createdAt,value
2022-12-18T00:00:19.479Z,68.40
2022-12-18T00:03:09.694Z,67.65
2022-12-18T00:05:39.005Z,65.23
2022-12-18T00:08:09.405Z,65.03
2022-12-18T00:10:38.586Z,63.63
2022-12-18T00:13:09.966Z,61.73
2022-12-18T00:15:41.680Z,61.26
2022-12-18T00:18:16.025Z,60.11
2022-12-18T00:20:46.691Z,62.16
2022-12-18T00:23:15.319Z,62.17
2022-12-18T00:25:44.336Z,61.02
2022-12-18T00:28:12.905Z,61.32
2022-12-18T00:30:41.942Z,61.81
2022-12-18T00:33:11.985Z,62.27
2022-12-18T00:35:40.898Z,62.44
2022-12-18T00:38:09.547Z,62.67
2022-12-18T00:40:38.452Z,63.22
2022-12-18T00:43:05.907Z,62.33
2022-12-18T00:45:34.764Z,61.40
2022-12-18T00:48:03.478Z,60.31
2022-12-18T00:50:35.408Z,58.97
2022-12-18T00:53:04.186Z,58.37
2022-12-18T00:55:33.246Z,57.66
2022-12-18T00:58:01.726Z,59.00
2022-12-18T01:00:30.710Z,59.55
2022-12-18T01:02:59.477Z,59.74
2022-12-18T01:05:29.394Z,59.31
2022-12-18T01:07:59.530Z,59.57
2022-12-18T01:10:28.390Z,59.74
2022-12-18T01:12:59.646Z,59.87
2022-12-18T01:15:28.976Z,60.25
2022-12-18T01:17:57.479Z,59.11
2022-12-18T01:20:29.438Z,58.07
2022-12-18T01:22:59.438Z,58.27
2022-12-18T01:25:29.692Z,57.93
2022-12-18T01:27:58.461Z,59.32
2022-12-18T01:30:27.474Z,59.12
2022-12-18T01:32:55.986Z,58.71
2022-12-18T01:35:24.806Z,58.94
2022-12-18T01:37:56.561Z,59.63
2022-12-18T01:40:26.910Z,59.65
2022-12-18T01:42:56.079Z,59.23
2022-12-18T01:45:28.559Z,58.94
2022-12-18T01:47:59.929Z,58.99
2022-12-18T01:50:32.919Z,58.02
2022-12-18T01:53:06.097Z,58.00
2022-12-18T01:55:41.042Z,57.95
2022-12-18T01:58:09.988Z,56.67
2022-12-18T02:00:38.966Z,57.45
2022-12-18T02:03:07.469Z,58.14
2022-12-18T02:05:57.121Z,58.50
2022-12-18T02:08:32.408Z,58.69
2022-12-18T02:11:09.476Z,58.31
2022-12-18T02:13:46.028Z,59.11
2022-12-18T02:16:23.781Z,58.88
2022-12-18T02:18:59.247Z,58.77
2022-12-18T02:21:37.101Z,58.57
2022-12-18T02:24:19.886Z,58.16
2022-12-18T02:26:54.055Z,56.48
2022-12-18T02:29:29.557Z,57.57
2022-12-18T02:32:01.053Z,57.20
2022-12-18T02:34:33.847Z,56.51
2022-12-18T02:37:07.984Z,58.19
2022-12-18T02:39:39.771Z,57.91
2022-12-18T02:42:10.379Z,58.90
2022-12-18T02:44:45.582Z,58.24
2022-12-18T02:47:19.077Z,59.06
2022-12-18T02:50:00.388Z,59.33
2022-12-18T02:52:41.672Z,58.57
2022-12-18T02:55:26.969Z,58.98
2022-12-18T02:58:07.921Z,58.33
2022-12-18T03:00:43.690Z,57.64
2022-12-18T03:03:18.729Z,56.96
2022-12-18T03:05:54.859Z,55.74
2022-12-18T03:08:28.177Z,55.78
2022-12-18T03:11:04.154Z,56.01
2022-12-18T03:13:41.790Z,56.70
2022-12-18T03:16:20.157Z,55.66
2022-12-18T03:18:53.894Z,55.69
2022-12-18T03:21:30.871Z,54.91
2022-12-18T03:24:01.184Z,55.32
2022-12-18T03:26:31.931Z,54.55
2022-12-18T03:29:10.195Z,54.74
2022-12-18T03:31:43.160Z,54.45
2022-12-18T03:34:16.527Z,53.31
2022-12-18T03:36:48.465Z,56.99
2022-12-18T03:39:17.957Z,58.19
2022-12-18T03:41:58.921Z,59.17
2022-12-18T03:44:47.387Z,59.22
2022-12-18T03:47:19.536Z,58.86
2022-12-18T03:49:56.506Z,58.31
2022-12-18T03:52:31.114Z,56.74
2022-12-18T03:55:02.361Z,56.38
2022-12-18T03:57:33.848Z,57.07
2022-12-18T04:00:08.628Z,57.70
2022-12-18T04:02:48.171Z,55.96
2022-12-18T04:05:26.867Z,55.28
2022-12-18T04:07:57.312Z,54.82
2022-12-18T04:10:26.143Z,53.71
2022-12-18T04:12:59.098Z,53.69
2022-12-18T04:15:29.938Z,54.48
2022-12-18T04:18:00.728Z,53.07
2022-12-18T04:20:38.719Z,55.13
2022-12-18T04:23:07.339Z,54.50
2022-12-18T04:25:37.829Z,54.20
2022-12-18T04:28:09.512Z,54.16
2022-12-18T04:30:42.254Z,53.61
2022-12-18T04:33:11.928Z,53.62
2022-12-18T04:35:41.784Z,53.18
2022-12-18T04:38:11.983Z,53.61
2022-12-18T04:40:41.426Z,53.03
2022-12-18T04:43:18.768Z,51.95
2022-12-18T04:45:49.027Z,52.96
2022-12-18T04:48:18.287Z,53.38
2022-12-18T04:50:47.174Z,53.07
2022-12-18T04:53:15.668Z,53.01
2022-12-18T04:55:44.513Z,53.51
2022-12-18T04:58:13.064Z,53.12
2022-12-18T05:00:41.884Z,53.71
2022-12-18T05:03:11.828Z,53.96
2022-12-18T05:05:40.650Z,55.14
2022-12-18T05:08:09.077Z,55.81
2022-12-18T05:10:38.556Z,54.83
2022-12-18T05:13:07.093Z,54.74
2022-12-18T05:15:36.521Z,57.59
2022-12-18T05:18:06.387Z,56.70
2022-12-18T05:20:36.615Z,56.05
2022-12-18T05:23:05.068Z,56.08
2022-12-18T05:25:33.776Z,55.19
2022-12-18T05:28:02.290Z,56.24
2022-12-18T05:30:30.990Z,56.37
2022-12-18T05:32:59.582Z,58.29
2022-12-18T05:35:28.430Z,57.33
2022-12-18T05:37:58.708Z,57.76
2022-12-18T05:40:27.646Z,57.52
2022-12-18T05:42:56.852Z,56.69
2022-12-18T05:45:25.586Z,56.21
2022-12-18T05:47:54.002Z,56.01
2022-12-18T05:50:22.757Z,55.17
2022-12-18T05:52:51.151Z,57.60
2022-12-18T05:55:21.727Z,58.44
2022-12-18T05:57:50.253Z,60.71
2022-12-18T06:00:19.498Z,61.16
2022-12-18T06:02:49.567Z,61.21
2022-12-18T06:05:18.697Z,59.95
2022-12-18T06:07:47.183Z,59.66
2022-12-18T06:10:16.199Z,60.94
2022-12-18T06:12:47.115Z,60.25
2022-12-18T06:15:16.299Z,60.50
2022-12-18T06:17:45.460Z,60.92
2022-12-18T06:20:15.230Z,60.84
2022-12-18T06:22:44.242Z,60.83
2022-12-18T06:25:13.210Z,61.12
2022-12-18T06:27:42.286Z,60.70
2022-12-18T06:30:15.115Z,61.30
2022-12-18T06:32:43.720Z,62.92
2022-12-18T06:35:12.957Z,64.61
2022-12-18T06:37:41.451Z,64.81
2022-12-18T06:40:10.944Z,65.78
2022-12-18T06:42:39.448Z,65.81
2022-12-18T06:45:09.232Z,64.76
2022-12-18T06:47:39.164Z,65.08
2022-12-18T06:50:09.718Z,65.43
2022-12-18T06:52:39.989Z,65.25
2022-12-18T06:55:10.266Z,63.91
2022-12-18T06:57:39.200Z,63.96
2022-12-18T07:00:09.752Z,63.22
2022-12-18T07:02:39.809Z,63.28
2022-12-18T07:05:11.139Z,62.67
2022-12-18T07:07:39.713Z,62.78
2022-12-18T07:10:08.841Z,61.71
2022-12-18T07:12:37.341Z,61.56
2022-12-18T07:15:07.251Z,60.91
2022-12-18T07:17:35.997Z,60.40
2022-12-18T07:20:07.210Z,58.72
2022-12-18T07:22:35.695Z,59.83
2022-12-18T07:25:04.591Z,59.78
2022-12-18T07:27:33.056Z,59.58
2022-12-18T07:30:02.004Z,58.78
2022-12-18T07:32:30.582Z,58.48
2022-12-18T07:34:59.334Z,58.03
2022-12-18T07:37:29.293Z,57.26
2022-12-18T07:39:58.029Z,57.11
2022-12-18T07:42:36.235Z,56.67
2022-12-18T07:45:06.301Z,56.41
2022-12-18T07:47:37.107Z,56.60
2022-12-18T07:50:07.303Z,56.34
2022-12-18T07:52:37.276Z,56.69
2022-12-18T07:55:07.127Z,56.88
2022-12-18T07:57:55.201Z,56.28
2022-12-18T08:00:25.311Z,55.46
2022-12-18T08:02:54.428Z,55.04
2022-12-18T08:05:23.421Z,55.44
2022-12-18T08:07:53.325Z,56.39
2022-12-18T08:10:22.380Z,56.12
2022-12-18T08:12:52.314Z,55.86
2022-12-18T08:15:21.111Z,56.41
2022-12-18T08:17:49.558Z,56.60
2022-12-18T08:20:19.322Z,57.06
2022-12-18T08:22:47.977Z,56.84
2022-12-18T08:25:18.363Z,59.15
2022-12-18T08:27:46.946Z,59.99
2022-12-18T08:30:16.250Z,59.34
2022-12-18T08:32:44.735Z,60.90
2022-12-18T08:35:15.555Z,61.40
2022-12-18T08:37:47.066Z,62.29
2022-12-18T08:40:17.367Z,62.30
2022-12-18T08:43:03.323Z,62.69
2022-12-18T08:45:32.276Z,63.39
2022-12-18T08:48:00.776Z,64.62
2022-12-18T08:50:29.654Z,65.02
2022-12-18T08:52:58.130Z,65.19
2022-12-18T08:55:28.603Z,65.59
2022-12-18T08:57:57.195Z,65.41
2022-12-18T09:00:25.996Z,65.13
2022-12-18T09:02:54.555Z,63.47
2022-12-18T09:05:23.625Z,62.96
2022-12-18T09:07:52.057Z,61.55
2022-12-18T09:10:20.882Z,63.25
2022-12-18T09:12:52.084Z,63.10
2022-12-18T09:15:21.068Z,61.63
2022-12-18T09:17:50.932Z,60.45
2022-12-18T09:20:19.745Z,62.15
2022-12-18T09:22:48.251Z,62.37
2022-12-18T09:25:17.276Z,61.73
2022-12-18T09:27:48.953Z,62.51
2022-12-18T09:30:19.254Z,62.54
2022-12-18T09:32:48.008Z,62.61
2022-12-18T09:35:16.648Z,61.90
2022-12-18T09:37:45.654Z,59.72
2022-12-18T09:40:16.713Z,59.43
2022-12-18T09:42:50.248Z,60.44
2022-12-18T09:45:20.640Z,59.36
2022-12-18T09:47:52.339Z,60.68
2022-12-18T09:50:28.478Z,61.17
2022-12-18T09:53:01.846Z,61.23
2022-12-18T09:55:37.425Z,61.16
2022-12-18T09:58:16.108Z,60.35
2022-12-18T10:00:46.304Z,57.77
2022-12-18T10:03:17.182Z,59.53
2022-12-18T10:05:58.522Z,58.59
2022-12-18T10:08:39.008Z,57.92
2022-12-18T10:11:25.623Z,58.64
2022-12-18T10:14:01.193Z,57.58
2022-12-18T10:16:39.886Z,59.48
2022-12-18T10:19:26.246Z,58.27
2022-12-18T10:22:03.304Z,59.72
2022-12-18T10:24:40.984Z,60.43
2022-12-18T10:27:18.621Z,60.50
2022-12-18T10:29:48.333Z,60.92
2022-12-18T10:32:21.435Z,60.76
2022-12-18T10:34:58.193Z,60.22
2022-12-18T10:37:30.501Z,58.47
2022-12-18T10:40:16.662Z,57.65
2022-12-18T10:42:49.493Z,58.82
2022-12-18T10:45:19.648Z,60.04
2022-12-18T10:47:51.293Z,59.17
2022-12-18T10:50:54.002Z,60.12
2022-12-18T10:53:22.721Z,60.98
2022-12-18T10:55:53.179Z,61.00
2022-12-18T10:58:27.468Z,60.87
2022-12-18T11:01:11.866Z,59.55
2022-12-18T11:03:44.315Z,61.58
2022-12-18T11:06:14.969Z,62.46
2022-12-18T11:08:45.647Z,61.96
2022-12-18T11:11:22.828Z,61.28
2022-12-18T11:14:03.353Z,60.98
2022-12-18T11:16:36.896Z,60.41
2022-12-18T11:19:27.385Z,60.58
2022-12-18T11:21:56.415Z,60.05
2022-12-18T11:24:31.607Z,60.41
2022-12-18T11:27:03.451Z,59.48
2022-12-18T11:29:40.621Z,57.42
2022-12-18T11:32:35.265Z,54.39
2022-12-18T11:35:17.573Z,53.82
2022-12-18T11:37:51.589Z,54.13
2022-12-18T11:40:24.614Z,52.29
2022-12-18T11:43:00.723Z,54.40
2022-12-18T11:45:32.168Z,55.49
2022-12-18T11:48:06.796Z,55.87
2022-12-18T11:50:53.863Z,55.55
2022-12-18T11:53:25.829Z,56.71
2022-12-18T11:56:08.219Z,57.33
2022-12-18T11:58:59.562Z,58.28
2022-12-18T12:01:44.697Z,58.05
2022-12-18T12:04:49.078Z,59.01
2022-12-18T12:07:29.579Z,59.15
2022-12-18T12:10:10.518Z,58.29
2022-12-18T12:12:54.871Z,59.43
2022-12-18T12:15:33.480Z,59.28
2022-12-18T12:18:11.595Z,58.43
2022-12-18T12:20:53.435Z,58.73
2022-12-18T12:23:35.059Z,58.52
2022-12-18T12:26:09.954Z,58.73
2022-12-18T12:28:55.686Z,58.09
2022-12-18T12:31:38.716Z,57.35
2022-12-18T12:34:17.808Z,55.71
2022-12-18T12:37:01.236Z,57.24
2022-12-18T12:39:35.545Z,57.52
2022-12-18T12:42:23.724Z,58.18
2022-12-18T12:44:57.191Z,58.60
2022-12-18T12:47:33.070Z,56.74
2022-12-18T12:50:05.884Z,56.25
2022-12-18T12:52:42.124Z,55.45
2022-12-18T12:55:19.722Z,55.99
2022-12-18T12:57:59.131Z,54.80
2022-12-18T13:00:33.229Z,53.98
2022-12-18T13:03:11.226Z,52.38
2022-12-18T13:05:46.662Z,51.35
2022-12-18T13:08:25.375Z,50.98
2022-12-18T13:11:13.089Z,50.25
2022-12-18T13:13:54.050Z,49.76
2022-12-18T13:16:25.890Z,49.62
2022-12-18T13:18:57.972Z,49.28
2022-12-18T13:21:30.056Z,50.52
2022-12-18T13:24:17.440Z,48.63
2022-12-18T13:26:47.225Z,48.52
2022-12-18T13:29:43.139Z,47.13
2022-12-18T13:32:24.679Z,46.55
2022-12-18T13:35:27.579Z,47.65
2022-12-18T13:37:56.982Z,46.77
2022-12-18T13:40:59.053Z,46.62
2022-12-18T13:43:35.874Z,46.66
2022-12-18T13:46:09.449Z,46.57
2022-12-18T13:48:41.493Z,46.06
2022-12-18T13:51:12.876Z,46.83
2022-12-18T13:53:46.737Z,46.03
2022-12-18T13:56:18.604Z,47.22
2022-12-18T13:58:48.447Z,46.79
2022-12-18T14:01:26.744Z,46.47
2022-12-18T14:04:13.332Z,47.04
2022-12-18T14:06:44.092Z,46.13
2022-12-18T14:09:21.432Z,46.57
2022-12-18T14:11:51.574Z,45.86
2022-12-18T14:14:22.756Z,46.31
2022-12-18T14:16:53.013Z,45.61
2022-12-18T14:19:23.025Z,45.75
2022-12-18T14:21:52.828Z,46.18
2022-12-18T14:24:23.594Z,45.57
2022-12-18T14:26:53.041Z,45.70
2022-12-18T14:29:26.941Z,44.91
2022-12-18T14:32:17.697Z,45.27
2022-12-18T14:34:48.229Z,45.76
2022-12-18T14:37:19.182Z,46.61
2022-12-18T14:39:59.161Z,46.44
2022-12-18T14:42:29.368Z,46.16
2022-12-18T14:45:42.708Z,46.14
2022-12-18T14:48:21.579Z,46.00
2022-12-18T14:51:02.187Z,45.89
2022-12-18T14:53:37.599Z,46.43
2022-12-18T14:56:17.238Z,45.81
2022-12-18T14:58:55.716Z,45.92
2022-12-18T15:01:28.840Z,46.05
2022-12-18T15:04:00.157Z,45.86
2022-12-18T15:06:32.651Z,46.31
2022-12-18T15:09:03.402Z,45.35
2022-12-18T15:11:37.415Z,47.14
2022-12-18T15:14:26.031Z,46.69
2022-12-18T15:16:57.569Z,47.14
2022-12-18T15:19:34.628Z,47.38
2022-12-18T15:22:06.582Z,46.92
2022-12-18T15:24:35.770Z,47.04
2022-12-18T15:27:04.637Z,46.19
2022-12-18T15:29:33.389Z,47.10
2022-12-18T15:32:05.588Z,46.98
2022-12-18T15:34:35.076Z,47.03
2022-12-18T15:37:03.516Z,46.60
2022-12-18T15:39:32.650Z,47.18
2022-12-18T15:42:20.748Z,46.18
2022-12-18T15:44:49.619Z,46.13
2022-12-18T15:47:19.538Z,46.50
2022-12-18T15:49:48.314Z,46.10
2022-12-18T15:52:26.919Z,46.68
2022-12-18T15:55:13.770Z,47.01
2022-12-18T15:57:42.247Z,46.96
2022-12-18T16:00:14.793Z,46.82
2022-12-18T16:02:45.274Z,46.85
2022-12-18T16:05:18.008Z,47.13
2022-12-18T16:07:47.173Z,47.21
2022-12-18T16:10:16.473Z,47.20
2022-12-18T16:12:45.307Z,47.63
2022-12-18T16:15:21.077Z,48.43
2022-12-18T16:17:54.537Z,48.24
2022-12-18T16:20:24.530Z,48.17
2022-12-18T16:22:54.153Z,49.03
2022-12-18T16:25:26.516Z,49.38
2022-12-18T16:27:56.229Z,48.32
2022-12-18T16:30:28.653Z,49.30
2022-12-18T16:33:02.528Z,49.62
2022-12-18T16:35:31.351Z,47.88
2022-12-18T16:37:59.833Z,47.71
2022-12-18T16:40:28.697Z,47.58
2022-12-18T16:42:57.279Z,47.84
2022-12-18T16:45:26.118Z,48.99
2022-12-18T16:47:54.534Z,50.69
2022-12-18T16:50:24.760Z,50.47
2022-12-18T16:52:53.381Z,51.49
2022-12-18T16:55:22.131Z,51.09
2022-12-18T16:57:50.682Z,51.64
2022-12-18T17:00:19.853Z,50.85
2022-12-18T17:02:48.625Z,50.81
2022-12-18T17:05:17.588Z,51.18
2022-12-18T17:07:48.151Z,50.56
2022-12-18T17:10:17.151Z,50.56
2022-12-18T17:12:45.648Z,50.23
2022-12-18T17:15:14.473Z,50.09
2022-12-18T17:17:43.406Z,49.69
2022-12-18T17:20:12.404Z,49.12
2022-12-18T17:22:41.196Z,48.67
2022-12-18T17:25:11.890Z,48.77
2022-12-18T17:27:41.078Z,48.69
2022-12-18T17:30:11.553Z,47.91
2022-12-18T17:32:40.193Z,47.34
2022-12-18T17:35:09.865Z,47.28
2022-12-18T17:37:38.307Z,47.64
2022-12-18T17:40:08.512Z,47.45
2022-12-18T17:42:38.267Z,47.36
2022-12-18T17:45:08.331Z,47.79
2022-12-18T17:47:37.255Z,47.56
2022-12-18T17:50:06.565Z,47.28
2022-12-18T17:52:35.114Z,46.73
2022-12-18T17:55:03.949Z,47.01
2022-12-18T17:57:32.495Z,47.57
2022-12-18T18:00:03.270Z,47.96
2022-12-18T18:02:38.096Z,47.64
2022-12-18T18:05:07.396Z,47.91
2022-12-18T18:07:39.037Z,47.49
2022-12-18T18:10:08.503Z,47.41
2022-12-18T18:12:55.606Z,47.60
2022-12-18T18:15:25.832Z,47.36
2022-12-18T18:17:54.323Z,47.23
2022-12-18T18:20:23.081Z,47.13
2022-12-18T18:22:51.713Z,47.36
2022-12-18T18:25:20.639Z,47.52
2022-12-18T18:27:51.179Z,48.28
2022-12-18T18:30:20.346Z,47.52
2022-12-18T18:32:50.350Z,47.73
2022-12-18T18:35:52.516Z,48.48
2022-12-18T18:38:10.125Z,48.57
2022-12-18T18:40:38.853Z,49.13
2022-12-18T18:43:07.510Z,49.06
2022-12-18T18:45:36.375Z,48.95
2022-12-18T18:48:06.895Z,48.58
2022-12-18T18:50:35.712Z,49.04
2022-12-18T18:53:04.268Z,48.95
2022-12-18T18:55:34.754Z,48.81
2022-12-18T18:58:03.361Z,48.80
2022-12-18T19:00:33.780Z,49.50
2022-12-18T19:03:02.923Z,49.57
2022-12-18T19:05:33.999Z,48.91
2022-12-18T19:08:02.477Z,48.59
2022-12-18T19:10:31.354Z,49.17
2022-12-18T19:13:17.048Z,49.55
2022-12-18T19:15:46.061Z,48.87
2022-12-18T19:18:14.659Z,49.34
2022-12-18T19:20:45.204Z,49.35
2022-12-18T19:23:13.681Z,49.84
2022-12-18T19:25:42.962Z,49.61
2022-12-18T19:28:15.818Z,50.58
2022-12-18T19:30:58.823Z,50.70
2022-12-18T19:33:45.019Z,50.96
2022-12-18T19:36:20.183Z,51.03
2022-12-18T19:38:49.939Z,50.45
2022-12-18T19:41:19.750Z,51.10
2022-12-18T19:43:49.451Z,50.56
2022-12-18T19:46:21.679Z,50.60
2022-12-18T19:48:50.725Z,50.63
2022-12-18T19:51:23.823Z,51.45
2022-12-18T19:53:58.121Z,50.73
2022-12-18T19:56:29.858Z,51.22
2022-12-18T19:58:58.940Z,51.55
2022-12-18T20:01:29.630Z,51.19
2022-12-18T20:03:59.056Z,51.76
2022-12-18T20:06:32.370Z,51.65
2022-12-18T20:09:03.053Z,52.07
2022-12-18T20:11:33.528Z,51.38
2022-12-18T20:14:06.698Z,52.19
2022-12-18T20:16:35.611Z,52.20
2022-12-18T20:19:04.422Z,51.99
2022-12-18T20:21:35.094Z,52.04
2022-12-18T20:24:03.730Z,52.24
2022-12-18T20:26:32.785Z,52.26
2022-12-18T20:29:01.688Z,52.29
2022-12-18T20:31:30.718Z,52.01
2022-12-18T20:34:01.539Z,51.62
2022-12-18T20:36:31.726Z,51.67
2022-12-18T20:39:05.208Z,51.72
2022-12-18T20:41:38.307Z,51.86
2022-12-18T20:44:21.481Z,51.74
2022-12-18T20:46:56.947Z,52.30
2022-12-18T20:49:27.050Z,51.91
2022-12-18T20:51:57.792Z,52.30
2022-12-18T20:54:28.558Z,51.48
2022-12-18T20:56:57.623Z,51.73
2022-12-18T20:59:26.500Z,51.67
2022-12-18T21:01:56.120Z,52.07
2022-12-18T21:04:25.187Z,52.06
2022-12-18T21:06:57.939Z,52.05
2022-12-18T21:09:37.586Z,51.82
2022-12-18T21:12:40.450Z,51.41
2022-12-18T21:15:12.629Z,52.04
2022-12-18T21:17:44.173Z,52.00
2022-12-18T21:20:18.011Z,51.13
2022-12-18T21:22:49.729Z,51.37
2022-12-18T21:25:19.720Z,51.57
2022-12-18T21:27:48.451Z,51.52
2022-12-18T21:30:17.402Z,51.77
2022-12-18T21:32:46.349Z,51.62
2022-12-18T21:35:15.538Z,51.48
2022-12-18T21:37:46.179Z,51.79
2022-12-18T21:40:15.147Z,51.38
2022-12-18T21:43:02.931Z,51.76
2022-12-18T21:45:31.390Z,51.45
2022-12-18T21:48:00.335Z,51.48
2022-12-18T21:50:28.831Z,51.62
2022-12-18T21:52:57.676Z,51.95
2022-12-18T21:55:26.158Z,50.47
2022-12-18T21:57:56.820Z,51.42
2022-12-18T22:00:25.627Z,51.48
2022-12-18T22:03:17.201Z,49.77
2022-12-18T22:05:42.953Z,48.03
2022-12-18T22:08:11.636Z,49.01
2022-12-18T22:10:41.400Z,48.46
2022-12-18T22:13:11.733Z,49.73
2022-12-18T22:15:40.141Z,50.09
2022-12-18T22:18:08.975Z,49.55
2022-12-18T22:20:37.512Z,50.86
2022-12-18T22:23:06.613Z,50.35
2022-12-18T22:25:35.785Z,50.72
2022-12-18T22:28:26.458Z,50.53
2022-12-18T22:30:59.218Z,50.58
2022-12-18T22:33:29.154Z,50.80
2022-12-18T22:35:57.638Z,51.43
2022-12-18T22:38:27.453Z,50.76
2022-12-18T22:40:56.416Z,51.01
2022-12-18T22:43:25.387Z,50.87
2022-12-18T22:45:53.919Z,51.56
2022-12-18T22:48:24.307Z,51.33
2022-12-18T22:50:53.862Z,51.16
2022-12-18T22:53:28.684Z,51.67
2022-12-18T22:56:02.022Z,51.56
2022-12-18T22:58:30.871Z,50.89
2022-12-18T23:00:59.334Z,51.36
2022-12-18T23:03:29.532Z,50.94
2022-12-18T23:06:04.435Z,51.40
2022-12-18T23:08:33.521Z,51.04
2022-12-18T23:11:02.272Z,50.51
2022-12-18T23:13:31.315Z,51.55
2022-12-18T23:15:59.907Z,50.54
2022-12-18T23:18:30.058Z,50.18
2022-12-18T23:20:58.603Z,50.27
2022-12-18T23:23:28.472Z,50.83
2022-12-18T23:26:02.104Z,50.38
2022-12-18T23:28:32.830Z,50.11
2022-12-18T23:31:06.843Z,49.88
2022-12-18T23:33:37.108Z,49.84
2022-12-18T23:36:07.098Z,50.41
2022-12-18T23:38:36.158Z,50.33
2022-12-18T23:41:08.888Z,50.30
2022-12-18T23:43:37.753Z,49.81
2022-12-18T23:46:12.530Z,50.14
2022-12-18T23:48:43.447Z,49.65
2022-12-18T23:51:13.679Z,50.38
2022-12-18T23:53:43.131Z,50.01
2022-12-18T23:56:13.834Z,49.33
2022-12-18T23:58:43.657Z,49.15
